sensor_id;sensor_type;location;lat;lon;timestamp;temperature;humidity
28520;DHT22;15732;48.534;20.382;2023-03-13T00:02:01;5.00;99.90
28520;DHT22;15732;48.534;20.382;2023-03-13T00:04:32;5.00;99.90
28520;DHT22;15732;48.534;20.382;2023-03-13T00:06:59;5.10;99.90
28520;DHT22;15732;48.534;20.382;2023-03-13T00:09:27;5.10;99.90
28520;DHT22;15732;48.534;20.382;2023-03-13T00:11:55;5.10;99.90
28520;DHT22;15732;48.534;20.382;2023-03-13T00:14:22;5.10;99.90
28520;DHT22;15732;48.534;20.382;2023-03-13T00:16:49;5.20;99.90
28520;DHT22;15732;48.534;20.382;2023-03-13T00:19:17;5.20;99.90
28520;DHT22;15732;48.534;20.382;2023-03-13T00:21:44;5.20;99.90
28520;DHT22;15732;48.534;20.382;2023-03-13T00:24:12;5.20;99.90
28520;DHT22;15732;48.534;20.382;2023-03-13T00:26:39;5.30;99.90
28520;DHT22;15732;48.534;20.382;2023-03-13T00:29:11;5.30;99.90
28520;DHT22;15732;48.534;20.382;2023-03-13T00:31:42;5.30;99.90
28520;DHT22;15732;48.534;20.382;2023-03-13T00:34:09;5.30;99.90
28520;DHT22;15732;48.534;20.382;2023-03-13T00:36:40;5.30;99.90
28520;DHT22;15732;48.534;20.382;2023-03-13T00:39:08;5.30;99.90
28520;DHT22;15732;48.534;20.382;2023-03-13T00:41:36;5.30;99.90
28520;DHT22;15732;48.534;20.382;2023-03-13T00:44:03;5.30;99.90
28520;DHT22;15732;48.534;20.382;2023-03-13T00:46:34;5.30;99.90
28520;DHT22;15732;48.534;20.382;2023-03-13T00:49:02;5.30;99.90
28520;DHT22;15732;48.534;20.382;2023-03-13T00:51:29;5.30;99.90
28520;DHT22;15732;48.534;20.382;2023-03-13T00:53:58;5.30;99.90
28520;DHT22;15732;48.534;20.382;2023-03-13T00:56:26;5.30;99.90
28520;DHT22;15732;48.534;20.382;2023-03-13T00:58:54;5.30;99.90
28520;DHT22;15732;48.534;20.382;2023-03-13T01:03:56;5.30;99.90
28520;DHT22;15732;48.534;20.382;2023-03-13T01:06:26;5.20;99.90
28520;DHT22;15732;48.534;20.382;2023-03-13T01:08:53;5.20;99.90
28520;DHT22;15732;48.534;20.382;2023-03-13T01:11:26;5.20;99.90
28520;DHT22;15732;48.534;20.382;2023-03-13T01:13:59;5.20;99.90
28520;DHT22;15732;48.534;20.382;2023-03-13T01:16:28;5.20;99.90
28520;DHT22;15732;48.534;20.382;2023-03-13T01:18:58;5.20;99.90
28520;DHT22;15732;48.534;20.382;2023-03-13T01:21:25;5.30;99.90
28520;DHT22;15732;48.534;20.382;2023-03-13T01:23:57;5.20;99.90
28520;DHT22;15732;48.534;20.382;2023-03-13T01:26:24;5.20;99.90
28520;DHT22;15732;48.534;20.382;2023-03-13T01:28:52;5.20;99.90
28520;DHT22;15732;48.534;20.382;2023-03-13T01:31:22;5.20;99.90
28520;DHT22;15732;48.534;20.382;2023-03-13T01:33:55;5.20;99.90
28520;DHT22;15732;48.534;20.382;2023-03-13T01:36:22;5.20;99.90
28520;DHT22;15732;48.534;20.382;2023-03-13T01:38:53;5.30;99.90
28520;DHT22;15732;48.534;20.382;2023-03-13T01:41:22;5.20;99.90
28520;DHT22;15732;48.534;20.382;2023-03-13T01:43:53;5.30;99.90
28520;DHT22;15732;48.534;20.382;2023-03-13T01:46:22;5.30;99.90
28520;DHT22;15732;48.534;20.382;2023-03-13T01:51:43;5.30;99.90
28520;DHT22;15732;48.534;20.382;2023-03-13T01:57:18;5.30;99.90
28520;DHT22;15732;48.534;20.382;2023-03-13T02:00:11;5.30;99.90
28520;DHT22;15732;48.534;20.382;2023-03-13T02:02:45;5.30;99.90
28520;DHT22;15732;48.534;20.382;2023-03-13T02:05:30;5.30;99.90
28520;DHT22;15732;48.534;20.382;2023-03-13T02:08:22;5.30;99.90
28520;DHT22;15732;48.534;20.382;2023-03-13T02:13:44;5.20;99.90
28520;DHT22;15732;48.534;20.382;2023-03-13T02:16:12;5.10;99.90
28520;DHT22;15732;48.534;20.382;2023-03-13T02:18:43;5.10;99.90
28520;DHT22;15732;48.534;20.382;2023-03-13T02:21:32;5.10;99.90
28520;DHT22;15732;48.534;20.382;2023-03-13T02:24:14;5.10;99.90
28520;DHT22;15732;48.534;20.382;2023-03-13T02:26:46;5.20;99.90
28520;DHT22;15732;48.534;20.382;2023-03-13T02:29:17;5.20;99.90
28520;DHT22;15732;48.534;20.382;2023-03-13T02:31:49;5.20;99.90
28520;DHT22;15732;48.534;20.382;2023-03-13T02:34:24;5.20;99.90
28520;DHT22;15732;48.534;20.382;2023-03-13T02:36:51;5.30;99.90
28520;DHT22;15732;48.534;20.382;2023-03-13T02:39:20;5.30;99.90
28520;DHT22;15732;48.534;20.382;2023-03-13T02:41:49;5.30;99.90
28520;DHT22;15732;48.534;20.382;2023-03-13T02:44:17;5.20;99.90
28520;DHT22;15732;48.534;20.382;2023-03-13T02:47:04;5.20;99.90
28520;DHT22;15732;48.534;20.382;2023-03-13T02:49:31;5.20;99.90
28520;DHT22;15732;48.534;20.382;2023-03-13T02:52:15;5.20;99.90
28520;DHT22;15732;48.534;20.382;2023-03-13T02:54:46;5.20;99.90
28520;DHT22;15732;48.534;20.382;2023-03-13T02:57:19;5.10;99.90
28520;DHT22;15732;48.534;20.382;2023-03-13T02:59:50;5.10;99.90
28520;DHT22;15732;48.534;20.382;2023-03-13T03:02:18;5.10;99.90
28520;DHT22;15732;48.534;20.382;2023-03-13T03:04:45;5.10;99.90
28520;DHT22;15732;48.534;20.382;2023-03-13T03:07:13;5.10;99.90
28520;DHT22;15732;48.534;20.382;2023-03-13T03:09:41;5.10;99.90
28520;DHT22;15732;48.534;20.382;2023-03-13T03:12:12;5.10;99.90
28520;DHT22;15732;48.534;20.382;2023-03-13T03:14:39;5.10;99.90
28520;DHT22;15732;48.534;20.382;2023-03-13T03:17:07;5.10;99.90
28520;DHT22;15732;48.534;20.382;2023-03-13T03:19:37;5.10;99.90
28520;DHT22;15732;48.534;20.382;2023-03-13T03:22:04;5.20;99.90
28520;DHT22;15732;48.534;20.382;2023-03-13T03:24:31;5.20;99.90
28520;DHT22;15732;48.534;20.382;2023-03-13T03:27:02;5.20;99.90
28520;DHT22;15732;48.534;20.382;2023-03-13T03:29:30;5.20;99.90
28520;DHT22;15732;48.534;20.382;2023-03-13T03:31:57;5.20;99.90
28520;DHT22;15732;48.534;20.382;2023-03-13T03:34:24;5.20;99.90
28520;DHT22;15732;48.534;20.382;2023-03-13T03:36:56;5.20;99.90
28520;DHT22;15732;48.534;20.382;2023-03-13T03:39:24;5.10;99.90
28520;DHT22;15732;48.534;20.382;2023-03-13T03:41:51;5.10;99.90
28520;DHT22;15732;48.534;20.382;2023-03-13T03:44:19;5.10;99.90
28520;DHT22;15732;48.534;20.382;2023-03-13T03:46:46;5.10;99.90
28520;DHT22;15732;48.534;20.382;2023-03-13T03:49:13;5.10;99.90
28520;DHT22;15732;48.534;20.382;2023-03-13T03:51:41;5.10;99.90
28520;DHT22;15732;48.534;20.382;2023-03-13T03:54:08;5.10;99.90
28520;DHT22;15732;48.534;20.382;2023-03-13T03:56:36;5.10;99.90
28520;DHT22;15732;48.534;20.382;2023-03-13T03:59:03;5.20;99.90
28520;DHT22;15732;48.534;20.382;2023-03-13T04:01:30;5.20;99.90
28520;DHT22;15732;48.534;20.382;2023-03-13T04:04:02;5.20;99.90
28520;DHT22;15732;48.534;20.382;2023-03-13T04:06:32;5.20;99.90
28520;DHT22;15732;48.534;20.382;2023-03-13T04:09:00;5.20;99.90
28520;DHT22;15732;48.534;20.382;2023-03-13T04:11:27;5.20;99.90
28520;DHT22;15732;48.534;20.382;2023-03-13T04:13:58;5.10;99.90
28520;DHT22;15732;48.534;20.382;2023-03-13T04:16:25;5.20;99.90
28520;DHT22;15732;48.534;20.382;2023-03-13T04:18:56;5.20;99.90
28520;DHT22;15732;48.534;20.382;2023-03-13T04:21:28;5.20;99.90
28520;DHT22;15732;48.534;20.382;2023-03-13T04:23:55;5.20;99.90
28520;DHT22;15732;48.534;20.382;2023-03-13T04:26:23;5.30;99.90
28520;DHT22;15732;48.534;20.382;2023-03-13T04:28:50;5.30;99.90
28520;DHT22;15732;48.534;20.382;2023-03-13T04:31:22;5.30;99.90
28520;DHT22;15732;48.534;20.382;2023-03-13T04:33:49;5.30;99.90
28520;DHT22;15732;48.534;20.382;2023-03-13T04:36:16;5.30;99.90
28520;DHT22;15732;48.534;20.382;2023-03-13T04:38:48;5.30;99.90
28520;DHT22;15732;48.534;20.382;2023-03-13T04:41:14;5.40;99.90
28520;DHT22;15732;48.534;20.382;2023-03-13T04:43:46;5.40;99.90
28520;DHT22;15732;48.534;20.382;2023-03-13T04:46:17;5.40;99.90
28520;DHT22;15732;48.534;20.382;2023-03-13T04:48:44;5.30;99.90
28520;DHT22;15732;48.534;20.382;2023-03-13T04:51:12;5.40;99.90
28520;DHT22;15732;48.534;20.382;2023-03-13T04:53:43;5.30;99.90
28520;DHT22;15732;48.534;20.382;2023-03-13T04:56:21;5.30;99.90
28520;DHT22;15732;48.534;20.382;2023-03-13T04:58:49;5.30;99.90
28520;DHT22;15732;48.534;20.382;2023-03-13T05:01:16;5.30;99.90
28520;DHT22;15732;48.534;20.382;2023-03-13T05:03:44;5.30;99.90
28520;DHT22;15732;48.534;20.382;2023-03-13T05:06:15;5.30;99.90
28520;DHT22;15732;48.534;20.382;2023-03-13T05:08:42;5.30;99.90
28520;DHT22;15732;48.534;20.382;2023-03-13T05:11:13;5.30;99.90
28520;DHT22;15732;48.534;20.382;2023-03-13T05:13:41;5.30;99.90
28520;DHT22;15732;48.534;20.382;2023-03-13T05:16:08;5.30;99.90
28520;DHT22;15732;48.534;20.382;2023-03-13T05:18:39;5.30;99.90
28520;DHT22;15732;48.534;20.382;2023-03-13T05:21:07;5.30;99.90
28520;DHT22;15732;48.534;20.382;2023-03-13T05:23:34;5.30;99.90
28520;DHT22;15732;48.534;20.382;2023-03-13T05:26:01;5.30;99.90
28520;DHT22;15732;48.534;20.382;2023-03-13T05:28:31;5.30;99.90
28520;DHT22;15732;48.534;20.382;2023-03-13T05:30:59;5.30;99.90
28520;DHT22;15732;48.534;20.382;2023-03-13T05:33:26;5.30;99.90
28520;DHT22;15732;48.534;20.382;2023-03-13T05:35:54;5.30;99.90
28520;DHT22;15732;48.534;20.382;2023-03-13T05:38:25;5.30;99.90
28520;DHT22;15732;48.534;20.382;2023-03-13T05:40:52;5.30;99.90
28520;DHT22;15732;48.534;20.382;2023-03-13T05:43:19;5.20;99.90
28520;DHT22;15732;48.534;20.382;2023-03-13T05:45:51;5.20;99.90
28520;DHT22;15732;48.534;20.382;2023-03-13T05:48:22;5.30;99.90
28520;DHT22;15732;48.534;20.382;2023-03-13T05:50:54;5.30;99.90
28520;DHT22;15732;48.534;20.382;2023-03-13T05:53:21;5.30;99.90
28520;DHT22;15732;48.534;20.382;2023-03-13T05:55:48;5.30;99.90
28520;DHT22;15732;48.534;20.382;2023-03-13T05:58:16;5.40;99.90
28520;DHT22;15732;48.534;20.382;2023-03-13T06:00:43;5.40;99.90
28520;DHT22;15732;48.534;20.382;2023-03-13T06:03:14;5.40;99.90
28520;DHT22;15732;48.534;20.382;2023-03-13T06:05:41;5.50;99.90
28520;DHT22;15732;48.534;20.382;2023-03-13T06:08:12;5.50;99.90
28520;DHT22;15732;48.534;20.382;2023-03-13T06:10:39;5.40;99.90
28520;DHT22;15732;48.534;20.382;2023-03-13T06:13:11;5.50;99.90
28520;DHT22;15732;48.534;20.382;2023-03-13T06:15:38;5.50;99.90
28520;DHT22;15732;48.534;20.382;2023-03-13T06:18:06;5.50;99.90
28520;DHT22;15732;48.534;20.382;2023-03-13T06:20:37;5.50;99.90
28520;DHT22;15732;48.534;20.382;2023-03-13T06:23:05;5.50;99.90
28520;DHT22;15732;48.534;20.382;2023-03-13T06:25:33;5.50;99.90
28520;DHT22;15732;48.534;20.382;2023-03-13T06:28:00;5.50;99.90
28520;DHT22;15732;48.534;20.382;2023-03-13T06:30:28;5.50;99.90
28520;DHT22;15732;48.534;20.382;2023-03-13T06:32:59;5.40;99.90
28520;DHT22;15732;48.534;20.382;2023-03-13T06:35:26;5.50;99.90
28520;DHT22;15732;48.534;20.382;2023-03-13T06:37:57;5.50;99.90
28520;DHT22;15732;48.534;20.382;2023-03-13T06:40:24;5.50;99.90
28520;DHT22;15732;48.534;20.382;2023-03-13T06:42:52;5.50;99.90
28520;DHT22;15732;48.534;20.382;2023-03-13T06:45:19;5.60;99.90
28520;DHT22;15732;48.534;20.382;2023-03-13T06:47:47;5.60;99.90
28520;DHT22;15732;48.534;20.382;2023-03-13T06:50:17;5.60;99.90
28520;DHT22;15732;48.534;20.382;2023-03-13T06:52:45;5.60;99.90
28520;DHT22;15732;48.534;20.382;2023-03-13T06:55:17;5.60;99.90
28520;DHT22;15732;48.534;20.382;2023-03-13T06:57:51;5.60;99.90
28520;DHT22;15732;48.534;20.382;2023-03-13T07:00:39;5.60;99.90
28520;DHT22;15732;48.534;20.382;2023-03-13T07:03:08;5.70;99.90
28520;DHT22;15732;48.534;20.382;2023-03-13T07:05:39;5.70;99.90
28520;DHT22;15732;48.534;20.382;2023-03-13T07:08:06;5.70;99.90
28520;DHT22;15732;48.534;20.382;2023-03-13T07:10:34;5.80;99.90
28520;DHT22;15732;48.534;20.382;2023-03-13T07:13:05;5.80;99.90
28520;DHT22;15732;48.534;20.382;2023-03-13T07:15:36;5.80;99.90
28520;DHT22;15732;48.534;20.382;2023-03-13T07:18:07;5.80;99.90
28520;DHT22;15732;48.534;20.382;2023-03-13T07:20:38;5.80;99.90
28520;DHT22;15732;48.534;20.382;2023-03-13T07:23:06;5.90;99.90
28520;DHT22;15732;48.534;20.382;2023-03-13T07:25:33;5.90;99.90
28520;DHT22;15732;48.534;20.382;2023-03-13T07:28:05;6.00;99.90
28520;DHT22;15732;48.534;20.382;2023-03-13T07:30:32;6.00;99.90
28520;DHT22;15732;48.534;20.382;2023-03-13T07:33:00;6.10;99.90
28520;DHT22;15732;48.534;20.382;2023-03-13T07:35:27;6.10;99.90
28520;DHT22;15732;48.534;20.382;2023-03-13T07:37:54;6.10;99.90
28520;DHT22;15732;48.534;20.382;2023-03-13T07:40:25;6.20;99.90
28520;DHT22;15732;48.534;20.382;2023-03-13T07:42:56;6.20;99.90
28520;DHT22;15732;48.534;20.382;2023-03-13T07:45:23;6.20;99.90
28520;DHT22;15732;48.534;20.382;2023-03-13T07:47:51;6.20;99.90
28520;DHT22;15732;48.534;20.382;2023-03-13T07:50:22;6.30;99.90
28520;DHT22;15732;48.534;20.382;2023-03-13T07:52:49;6.30;99.90
28520;DHT22;15732;48.534;20.382;2023-03-13T07:55:17;6.40;99.90
28520;DHT22;15732;48.534;20.382;2023-03-13T07:57:48;6.40;99.90
28520;DHT22;15732;48.534;20.382;2023-03-13T08:00:20;6.40;99.90
28520;DHT22;15732;48.534;20.382;2023-03-13T08:02:49;6.40;99.90
28520;DHT22;15732;48.534;20.382;2023-03-13T08:05:16;6.40;99.90
28520;DHT22;15732;48.534;20.382;2023-03-13T08:07:44;6.50;99.90
28520;DHT22;15732;48.534;20.382;2023-03-13T08:10:12;6.50;99.90
28520;DHT22;15732;48.534;20.382;2023-03-13T08:12:39;6.50;99.90
28520;DHT22;15732;48.534;20.382;2023-03-13T08:15:08;6.50;99.90
28520;DHT22;15732;48.534;20.382;2023-03-13T08:17:36;6.60;99.90
28520;DHT22;15732;48.534;20.382;2023-03-13T08:20:05;6.60;99.90
28520;DHT22;15732;48.534;20.382;2023-03-13T08:22:35;6.60;99.90
28520;DHT22;15732;48.534;20.382;2023-03-13T08:25:04;6.60;99.90
28520;DHT22;15732;48.534;20.382;2023-03-13T08:27:32;6.60;99.90
28520;DHT22;15732;48.534;20.382;2023-03-13T08:30:03;6.60;99.90
28520;DHT22;15732;48.534;20.382;2023-03-13T08:32:35;6.60;99.90
28520;DHT22;15732;48.534;20.382;2023-03-13T08:35:03;6.70;99.90
28520;DHT22;15732;48.534;20.382;2023-03-13T08:37:30;6.70;99.90
28520;DHT22;15732;48.534;20.382;2023-03-13T08:39:57;6.80;99.90
28520;DHT22;15732;48.534;20.382;2023-03-13T08:42:25;6.80;99.90
28520;DHT22;15732;48.534;20.382;2023-03-13T08:44:52;6.80;99.90
28520;DHT22;15732;48.534;20.382;2023-03-13T08:47:24;6.90;99.90
28520;DHT22;15732;48.534;20.382;2023-03-13T08:50:01;6.90;99.90
28520;DHT22;15732;48.534;20.382;2023-03-13T08:52:29;6.90;99.90
28520;DHT22;15732;48.534;20.382;2023-03-13T08:54:56;7.00;99.90
28520;DHT22;15732;48.534;20.382;2023-03-13T08:57:23;7.00;99.90
28520;DHT22;15732;48.534;20.382;2023-03-13T08:59:51;7.00;99.90
28520;DHT22;15732;48.534;20.382;2023-03-13T09:02:18;7.00;99.90
28520;DHT22;15732;48.534;20.382;2023-03-13T09:04:46;7.00;99.90
28520;DHT22;15732;48.534;20.382;2023-03-13T09:07:14;7.00;99.90
28520;DHT22;15732;48.534;20.382;2023-03-13T09:09:42;7.00;99.90
28520;DHT22;15732;48.534;20.382;2023-03-13T09:12:10;7.00;99.90
28520;DHT22;15732;48.534;20.382;2023-03-13T09:14:41;7.00;99.90
28520;DHT22;15732;48.534;20.382;2023-03-13T09:17:12;7.10;99.90
28520;DHT22;15732;48.534;20.382;2023-03-13T09:19:43;7.10;99.90
28520;DHT22;15732;48.534;20.382;2023-03-13T09:22:15;7.10;99.90
28520;DHT22;15732;48.534;20.382;2023-03-13T09:24:46;7.10;99.90
28520;DHT22;15732;48.534;20.382;2023-03-13T09:27:14;7.20;99.90
28520;DHT22;15732;48.534;20.382;2023-03-13T09:29:46;7.20;99.90
28520;DHT22;15732;48.534;20.382;2023-03-13T09:32:13;7.20;99.90
28520;DHT22;15732;48.534;20.382;2023-03-13T09:34:45;7.30;99.90
28520;DHT22;15732;48.534;20.382;2023-03-13T09:37:13;7.30;99.90
28520;DHT22;15732;48.534;20.382;2023-03-13T09:39:40;7.40;99.90
28520;DHT22;15732;48.534;20.382;2023-03-13T09:42:32;7.50;99.90
28520;DHT22;15732;48.534;20.382;2023-03-13T09:45:10;7.50;99.90
28520;DHT22;15732;48.534;20.382;2023-03-13T09:47:50;7.60;99.90
28520;DHT22;15732;48.534;20.382;2023-03-13T09:50:26;7.60;99.90
28520;DHT22;15732;48.534;20.382;2023-03-13T09:53:03;7.70;99.90
28520;DHT22;15732;48.534;20.382;2023-03-13T09:55:35;7.70;99.90
28520;DHT22;15732;48.534;20.382;2023-03-13T09:58:20;7.80;99.90
28520;DHT22;15732;48.534;20.382;2023-03-13T10:00:57;7.80;99.90
28520;DHT22;15732;48.534;20.382;2023-03-13T10:03:53;7.80;99.90
28520;DHT22;15732;48.534;20.382;2023-03-13T10:06:23;7.80;99.90
28520;DHT22;15732;48.534;20.382;2023-03-13T10:08:54;7.90;99.90
28520;DHT22;15732;48.534;20.382;2023-03-13T10:11:43;8.00;99.90
28520;DHT22;15732;48.534;20.382;2023-03-13T10:14:23;8.10;99.90
28520;DHT22;15732;48.534;20.382;2023-03-13T10:19:38;8.40;99.90
28520;DHT22;15732;48.534;20.382;2023-03-13T10:22:33;8.60;99.90
28520;DHT22;15732;48.534;20.382;2023-03-13T10:25:07;8.80;99.90
28520;DHT22;15732;48.534;20.382;2023-03-13T10:27:48;8.90;99.90
28520;DHT22;15732;48.534;20.382;2023-03-13T10:30:37;9.00;99.90
28520;DHT22;15732;48.534;20.382;2023-03-13T10:35:40;9.30;99.90
28520;DHT22;15732;48.534;20.382;2023-03-13T10:38:16;9.30;99.90
28520;DHT22;15732;48.534;20.382;2023-03-13T10:40:59;9.40;99.90
28520;DHT22;15732;48.534;20.382;2023-03-13T10:43:28;9.50;99.90
28520;DHT22;15732;48.534;20.382;2023-03-13T10:45:55;9.60;99.90
28520;DHT22;15732;48.534;20.382;2023-03-13T10:48:39;9.60;99.90
28520;DHT22;15732;48.534;20.382;2023-03-13T10:51:21;9.70;99.90
28520;DHT22;15732;48.534;20.382;2023-03-13T10:53:48;9.80;99.90
28520;DHT22;15732;48.534;20.382;2023-03-13T10:56:27;9.90;99.90
28520;DHT22;15732;48.534;20.382;2023-03-13T10:59:00;10.00;99.90
28520;DHT22;15732;48.534;20.382;2023-03-13T11:01:40;10.10;99.90
28520;DHT22;15732;48.534;20.382;2023-03-13T11:04:30;10.20;99.90
28520;DHT22;15732;48.534;20.382;2023-03-13T11:07:02;10.30;99.90
28520;DHT22;15732;48.534;20.382;2023-03-13T11:09:30;10.30;99.90
28520;DHT22;15732;48.534;20.382;2023-03-13T11:12:06;10.40;99.90
28520;DHT22;15732;48.534;20.382;2023-03-13T11:14:35;10.40;99.90
28520;DHT22;15732;48.534;20.382;2023-03-13T11:17:33;10.50;99.90
28520;DHT22;15732;48.534;20.382;2023-03-13T11:20:18;10.50;99.90
28520;DHT22;15732;48.534;20.382;2023-03-13T11:26:29;10.50;99.90
28520;DHT22;15732;48.534;20.382;2023-03-13T11:29:25;10.60;99.90
28520;DHT22;15732;48.534;20.382;2023-03-13T11:32:10;10.60;99.90
28520;DHT22;15732;48.534;20.382;2023-03-13T11:35:06;10.60;99.90
28520;DHT22;15732;48.534;20.382;2023-03-13T11:37:38;10.60;99.90
28520;DHT22;15732;48.534;20.382;2023-03-13T11:40:52;10.60;99.90
28520;DHT22;15732;48.534;20.382;2023-03-13T11:46:02;10.60;99.90
28520;DHT22;15732;48.534;20.382;2023-03-13T11:54:22;10.60;99.90
28520;DHT22;15732;48.534;20.382;2023-03-13T11:56:56;10.60;99.90
28520;DHT22;15732;48.534;20.382;2023-03-13T12:02:30;10.60;99.90
28520;DHT22;15732;48.534;20.382;2023-03-13T12:05:09;10.60;99.90
28520;DHT22;15732;48.534;20.382;2023-03-13T12:08:03;10.60;99.90
28520;DHT22;15732;48.534;20.382;2023-03-13T12:13:44;10.70;99.90
28520;DHT22;15732;48.534;20.382;2023-03-13T12:16:19;10.80;99.90
28520;DHT22;15732;48.534;20.382;2023-03-13T12:18:52;10.80;99.90
28520;DHT22;15732;48.534;20.382;2023-03-13T12:21:28;10.90;99.90
28520;DHT22;15732;48.534;20.382;2023-03-13T12:24:26;10.90;99.90
28520;DHT22;15732;48.534;20.382;2023-03-13T12:26:59;10.90;99.90
28520;DHT22;15732;48.534;20.382;2023-03-13T12:29:48;10.90;99.90
28520;DHT22;15732;48.534;20.382;2023-03-13T12:32:32;10.90;99.90
28520;DHT22;15732;48.534;20.382;2023-03-13T12:45:26;11.30;99.90
28520;DHT22;15732;48.534;20.382;2023-03-13T12:51:00;11.40;99.90
28520;DHT22;15732;48.534;20.382;2023-03-13T13:01:59;11.40;99.90
28520;DHT22;15732;48.534;20.382;2023-03-13T13:04:33;11.40;99.90
28520;DHT22;15732;48.534;20.382;2023-03-13T13:12:39;11.40;99.90
28520;DHT22;15732;48.534;20.382;2023-03-13T13:17:55;11.50;99.90
28520;DHT22;15732;48.534;20.382;2023-03-13T13:20:37;11.50;99.90
28520;DHT22;15732;48.534;20.382;2023-03-13T13:23:34;11.50;99.90
28520;DHT22;15732;48.534;20.382;2023-03-13T13:39:46;11.80;99.90
28520;DHT22;15732;48.534;20.382;2023-03-13T13:47:29;12.00;99.90
28520;DHT22;15732;48.534;20.382;2023-03-13T13:49:58;12.00;99.90
28520;DHT22;15732;48.534;20.382;2023-03-13T13:52:39;12.10;99.90
28520;DHT22;15732;48.534;20.382;2023-03-13T13:55:40;12.10;99.90
28520;DHT22;15732;48.534;20.382;2023-03-13T13:58:20;12.20;99.90
28520;DHT22;15732;48.534;20.382;2023-03-13T14:00:57;12.20;99.90
28520;DHT22;15732;48.534;20.382;2023-03-13T14:03:28;12.20;99.90
28520;DHT22;15732;48.534;20.382;2023-03-13T14:06:02;12.20;99.90
28520;DHT22;15732;48.534;20.382;2023-03-13T14:08:37;12.30;99.90
28520;DHT22;15732;48.534;20.382;2023-03-13T14:11:34;12.40;99.90
28520;DHT22;15732;48.534;20.382;2023-03-13T14:16:45;12.40;99.90
28520;DHT22;15732;48.534;20.382;2023-03-13T14:19:36;12.30;99.90
28520;DHT22;15732;48.534;20.382;2023-03-13T14:22:08;12.30;99.90
28520;DHT22;15732;48.534;20.382;2023-03-13T14:24:39;12.30;99.90
28520;DHT22;15732;48.534;20.382;2023-03-13T14:27:17;12.30;99.90
28520;DHT22;15732;48.534;20.382;2023-03-13T14:30:03;12.30;99.90
28520;DHT22;15732;48.534;20.382;2023-03-13T14:32:30;12.30;99.90
28520;DHT22;15732;48.534;20.382;2023-03-13T14:34:57;12.30;99.90
28520;DHT22;15732;48.534;20.382;2023-03-13T14:37:36;12.40;99.90
28520;DHT22;15732;48.534;20.382;2023-03-13T14:40:07;12.40;99.90
28520;DHT22;15732;48.534;20.382;2023-03-13T14:42:59;12.40;99.90
28520;DHT22;15732;48.534;20.382;2023-03-13T14:45:51;12.50;99.90
28520;DHT22;15732;48.534;20.382;2023-03-13T14:48:30;12.50;99.90
28520;DHT22;15732;48.534;20.382;2023-03-13T14:51:24;12.50;99.90
28520;DHT22;15732;48.534;20.382;2023-03-13T14:53:54;12.50;99.90
28520;DHT22;15732;48.534;20.382;2023-03-13T14:59:22;12.50;99.90
28520;DHT22;15732;48.534;20.382;2023-03-13T15:02:29;12.50;99.90
28520;DHT22;15732;48.534;20.382;2023-03-13T15:04:59;12.60;99.90
28520;DHT22;15732;48.534;20.382;2023-03-13T15:07:40;12.50;99.90
28520;DHT22;15732;48.534;20.382;2023-03-13T15:10:37;12.50;99.90
28520;DHT22;15732;48.534;20.382;2023-03-13T15:13:26;12.50;99.90
28520;DHT22;15732;48.534;20.382;2023-03-13T15:16:00;12.50;99.90
28520;DHT22;15732;48.534;20.382;2023-03-13T15:18:30;12.50;99.90
28520;DHT22;15732;48.534;20.382;2023-03-13T15:23:39;12.50;99.90
28520;DHT22;15732;48.534;20.382;2023-03-13T15:26:10;12.50;99.90
28520;DHT22;15732;48.534;20.382;2023-03-13T15:28:38;12.50;99.90
28520;DHT22;15732;48.534;20.382;2023-03-13T15:31:05;12.50;99.90
28520;DHT22;15732;48.534;20.382;2023-03-13T15:33:34;12.50;99.90
28520;DHT22;15732;48.534;20.382;2023-03-13T15:36:01;12.50;99.90
28520;DHT22;15732;48.534;20.382;2023-03-13T15:38:28;12.50;99.90
28520;DHT22;15732;48.534;20.382;2023-03-13T15:40:56;12.40;99.90
28520;DHT22;15732;48.534;20.382;2023-03-13T15:43:26;12.40;99.90
28520;DHT22;15732;48.534;20.382;2023-03-13T15:45:58;12.50;99.90
28520;DHT22;15732;48.534;20.382;2023-03-13T15:48:28;12.40;99.90
28520;DHT22;15732;48.534;20.382;2023-03-13T15:51:01;12.40;99.90
28520;DHT22;15732;48.534;20.382;2023-03-13T15:53:36;12.40;99.90
28520;DHT22;15732;48.534;20.382;2023-03-13T15:56:12;12.40;99.90
28520;DHT22;15732;48.534;20.382;2023-03-13T15:58:41;12.30;99.90
28520;DHT22;15732;48.534;20.382;2023-03-13T16:01:10;12.30;99.90
28520;DHT22;15732;48.534;20.382;2023-03-13T16:03:39;12.20;99.90
28520;DHT22;15732;48.534;20.382;2023-03-13T16:06:21;12.20;99.90
28520;DHT22;15732;48.534;20.382;2023-03-13T16:08:57;12.20;99.90
28520;DHT22;15732;48.534;20.382;2023-03-13T16:11:26;12.10;99.90
28520;DHT22;15732;48.534;20.382;2023-03-13T16:13:53;12.10;99.90
28520;DHT22;15732;48.534;20.382;2023-03-13T16:16:27;12.10;99.90
28520;DHT22;15732;48.534;20.382;2023-03-13T16:18:58;12.00;99.90
28520;DHT22;15732;48.534;20.382;2023-03-13T16:21:29;12.00;99.90
28520;DHT22;15732;48.534;20.382;2023-03-13T16:23:56;12.00;99.90
28520;DHT22;15732;48.534;20.382;2023-03-13T16:26:25;11.90;99.90
28520;DHT22;15732;48.534;20.382;2023-03-13T16:28:56;11.90;99.90
28520;DHT22;15732;48.534;20.382;2023-03-13T16:31:29;11.90;99.90
28520;DHT22;15732;48.534;20.382;2023-03-13T16:34:00;11.90;99.90
28520;DHT22;15732;48.534;20.382;2023-03-13T16:36:30;11.90;99.90
28520;DHT22;15732;48.534;20.382;2023-03-13T16:39:05;11.90;99.90
28520;DHT22;15732;48.534;20.382;2023-03-13T16:41:34;11.80;99.90
28520;DHT22;15732;48.534;20.382;2023-03-13T16:44:05;11.80;99.90
28520;DHT22;15732;48.534;20.382;2023-03-13T16:46:38;11.80;99.90
28520;DHT22;15732;48.534;20.382;2023-03-13T16:49:09;11.80;99.90
28520;DHT22;15732;48.534;20.382;2023-03-13T16:51:37;11.80;99.90
28520;DHT22;15732;48.534;20.382;2023-03-13T16:54:05;11.80;99.90
28520;DHT22;15732;48.534;20.382;2023-03-13T16:56:39;11.80;99.90
28520;DHT22;15732;48.534;20.382;2023-03-13T16:59:14;11.70;99.90
28520;DHT22;15732;48.534;20.382;2023-03-13T17:01:46;11.70;99.90
28520;DHT22;15732;48.534;20.382;2023-03-13T17:04:13;11.70;99.90
28520;DHT22;15732;48.534;20.382;2023-03-13T17:06:41;11.70;99.90
28520;DHT22;15732;48.534;20.382;2023-03-13T17:09:16;11.70;99.90
28520;DHT22;15732;48.534;20.382;2023-03-13T17:11:47;11.70;99.90
28520;DHT22;15732;48.534;20.382;2023-03-13T17:14:14;11.70;99.90
28520;DHT22;15732;48.534;20.382;2023-03-13T17:16:43;11.60;99.90
28520;DHT22;15732;48.534;20.382;2023-03-13T17:19:12;11.60;99.90
28520;DHT22;15732;48.534;20.382;2023-03-13T17:21:40;11.60;99.90
28520;DHT22;15732;48.534;20.382;2023-03-13T17:24:08;11.60;99.90
28520;DHT22;15732;48.534;20.382;2023-03-13T17:26:39;11.50;99.90
28520;DHT22;15732;48.534;20.382;2023-03-13T17:29:15;11.60;99.90